createdAt,value
2022-08-02T06:22:32.098Z,9.20
2022-08-02T06:22:47.753Z,7.00
2022-08-02T06:23:57.560Z,6.70
2022-08-02T06:24:47.353Z,7.70
2022-08-02T06:25:50.500Z,6.80
2022-08-02T06:26:47.386Z,6.90
2022-08-02T06:27:47.312Z,6.30
2022-08-02T06:28:47.318Z,6.10
2022-08-02T06:29:47.311Z,5.80
2022-08-02T06:30:47.293Z,6.60
2022-08-02T06:31:48.446Z,7.60
2022-08-02T06:32:48.454Z,7.30
2022-08-02T06:33:48.382Z,8.80
2022-08-02T06:34:48.423Z,8.80
2022-08-02T06:35:48.366Z,9.10
2022-08-02T06:36:48.378Z,8.90
2022-08-02T06:37:48.362Z,9.70
2022-08-02T06:38:51.231Z,9.60
2022-08-02T06:39:48.356Z,9.50
2022-08-02T06:40:48.333Z,8.70
2022-08-02T06:41:48.307Z,9.90
2022-08-02T06:42:48.356Z,9.70
2022-08-02T06:43:48.302Z,10.10
2022-08-02T06:44:51.937Z,10.20
2022-08-02T06:45:48.272Z,9.30
2022-08-02T06:47:09.609Z,9.80
2022-08-02T06:47:48.228Z,9.30
2022-08-02T06:48:48.209Z,9.10
2022-08-02T06:49:52.382Z,8.60
2022-08-02T06:50:48.192Z,8.80
2022-08-02T06:51:48.212Z,9.40
2022-08-02T06:52:48.180Z,9.30
2022-08-02T06:53:48.183Z,8.80
2022-08-02T06:54:48.190Z,9.20
2022-08-02T06:55:48.123Z,8.60
2022-08-02T06:56:48.144Z,8.50
2022-08-02T06:57:49.083Z,8.50
2022-08-02T06:58:48.089Z,9.20
2022-08-02T06:59:48.098Z,9.50
2022-08-02T07:00:48.124Z,10.00
2022-08-02T07:01:48.066Z,9.80
2022-08-02T07:02:48.059Z,9.30
2022-08-02T07:03:48.067Z,8.80
2022-08-02T07:04:48.010Z,10.10
2022-08-02T07:05:48.014Z,10.20
2022-08-02T07:06:48.148Z,9.30
2022-08-02T07:07:47.987Z,9.90
2022-08-02T07:09:11.167Z,9.60
2022-08-02T07:09:56.525Z,8.10
2022-08-02T07:10:47.951Z,8.10
2022-08-02T07:11:47.954Z,7.80
2022-08-02T07:12:47.912Z,7.30
2022-08-02T07:13:47.920Z,7.10
2022-08-02T07:14:47.923Z,9.00
2022-08-02T07:15:49.453Z,8.20
2022-08-02T07:16:47.878Z,8.20
2022-08-02T07:17:47.878Z,8.10
2022-08-02T07:18:47.848Z,7.50
2022-08-02T07:19:47.854Z,6.70
2022-08-02T07:20:47.841Z,7.20
2022-08-02T07:21:57.228Z,6.80
2022-08-02T07:22:47.828Z,7.10
2022-08-02T07:23:47.818Z,7.20
2022-08-02T07:24:47.797Z,7.70
2022-08-02T07:26:02.325Z,7.30
2022-08-02T07:27:09.972Z,7.20
2022-08-02T07:27:48.798Z,7.70
2022-08-02T07:28:47.774Z,6.40
2022-08-02T07:29:47.743Z,6.60
2022-08-02T07:30:47.763Z,6.70
2022-08-02T07:31:47.736Z,5.80
2022-08-02T07:32:48.726Z,7.00
2022-08-02T07:33:47.919Z,6.30
2022-08-02T07:34:50.745Z,5.90
2022-08-02T07:35:47.708Z,5.80
2022-08-02T07:36:47.659Z,6.50
2022-08-02T07:37:54.786Z,5.40
2022-08-02T07:38:48.624Z,5.30
2022-08-02T07:39:47.650Z,4.60
2022-08-02T07:40:47.661Z,5.00
2022-08-02T07:41:47.591Z,5.80
2022-08-02T07:42:47.604Z,5.40
2022-08-02T07:43:47.582Z,5.20
2022-08-02T07:44:49.293Z,5.30
2022-08-02T07:45:55.815Z,5.30
2022-08-02T07:46:47.562Z,5.70
2022-08-02T07:47:47.548Z,6.20
2022-08-02T07:48:47.537Z,5.40
2022-08-02T07:49:47.513Z,5.40
2022-08-02T07:50:47.491Z,5.20
2022-08-02T07:51:47.515Z,5.30
2022-08-02T07:52:47.473Z,5.10
2022-08-02T07:53:51.200Z,5.60
2022-08-02T07:54:47.467Z,5.30
2022-08-02T07:55:47.553Z,5.60
2022-08-02T07:56:47.439Z,5.30
2022-08-02T07:57:47.540Z,5.40
2022-08-02T07:58:47.402Z,4.70
2022-08-02T07:59:47.383Z,4.50
2022-08-02T08:00:47.407Z,4.70
2022-08-02T08:01:47.403Z,5.10
2022-08-02T08:02:47.371Z,4.80
2022-08-02T08:03:47.342Z,5.30
2022-08-02T08:04:47.749Z,5.00
2022-08-02T08:05:47.326Z,5.10
2022-08-02T08:06:47.350Z,4.90
2022-08-02T08:07:47.403Z,5.10
2022-08-02T08:08:47.324Z,4.80
2022-08-02T08:09:47.355Z,4.70
2022-08-02T08:10:47.269Z,4.80
2022-08-02T08:11:47.339Z,4.90
2022-08-02T08:12:47.262Z,4.30
2022-08-02T08:13:47.536Z,4.40
2022-08-02T08:14:47.312Z,5.00
2022-08-02T08:15:52.230Z,5.20
2022-08-02T08:16:47.271Z,4.80
2022-08-02T08:17:47.208Z,4.40
2022-08-02T08:18:47.204Z,4.40
2022-08-02T08:19:51.528Z,4.40
2022-08-02T08:20:47.149Z,5.10
2022-08-02T08:21:47.310Z,4.70
2022-08-02T08:22:47.256Z,4.70
2022-08-02T08:23:47.180Z,4.10
2022-08-02T08:24:47.312Z,3.80
2022-08-02T08:25:47.147Z,3.80
2022-08-02T08:26:47.598Z,3.90
2022-08-02T08:27:47.264Z,3.30
2022-08-02T08:28:47.123Z,3.40
2022-08-02T08:29:47.247Z,3.80
2022-08-02T08:30:47.130Z,4.60
2022-08-02T08:31:47.378Z,4.70
2022-08-02T08:32:47.211Z,4.00
2022-08-02T08:33:47.178Z,4.80
2022-08-02T08:34:47.083Z,4.20
2022-08-02T08:35:47.151Z,4.40
2022-08-02T08:36:47.042Z,3.80
2022-08-02T08:37:47.058Z,3.60
2022-08-02T08:38:47.029Z,4.80
2022-08-02T08:39:57.836Z,4.60
2022-08-02T08:40:47.066Z,4.60
2022-08-02T08:41:47.035Z,4.30
2022-08-02T08:42:47.118Z,4.20
2022-08-02T08:43:51.435Z,4.40
2022-08-02T08:44:47.976Z,4.10
2022-08-02T08:45:56.106Z,4.00
2022-08-02T08:46:46.963Z,4.00
2022-08-02T08:47:47.079Z,3.60
2022-08-02T08:48:46.922Z,4.30
2022-08-02T08:49:52.502Z,4.10
2022-08-02T08:50:47.329Z,3.90
2022-08-02T08:51:49.412Z,4.40
2022-08-02T08:52:46.913Z,4.50
2022-08-02T08:53:47.137Z,4.20
2022-08-02T08:54:48.456Z,3.50
2022-08-02T08:55:46.966Z,3.80
2022-08-02T08:56:47.431Z,3.20
2022-08-02T08:57:47.952Z,3.30
2022-08-02T08:58:48.803Z,2.50
2022-08-02T09:03:28.437Z,2.50
2022-08-02T09:04:28.423Z,2.70
2022-08-02T09:05:29.009Z,2.70
2022-08-02T09:06:28.664Z,2.60
2022-08-02T09:07:28.198Z,2.60
2022-08-02T09:08:28.338Z,2.30
2022-08-02T09:09:28.202Z,2.40
2022-08-02T09:10:28.144Z,2.30
2022-08-02T09:11:28.149Z,2.00
2022-08-02T09:12:28.181Z,2.00
2022-08-02T09:13:43.490Z,2.40
2022-08-02T09:14:28.096Z,2.30
2022-08-02T09:15:28.106Z,2.20
2022-08-02T09:16:28.111Z,2.10
2022-08-02T09:17:28.065Z,2.00
2022-08-02T09:18:28.050Z,2.10
2022-08-02T09:19:28.021Z,2.40
2022-08-02T09:20:30.827Z,2.50
2022-08-02T09:21:29.130Z,2.20
2022-08-02T09:22:29.172Z,2.30
2022-08-02T09:23:29.113Z,2.20
2022-08-02T09:24:31.713Z,2.20
2022-08-02T09:25:29.090Z,2.20
2022-08-02T09:26:29.836Z,2.50
2022-08-02T09:27:29.100Z,2.10
2022-08-02T09:28:29.045Z,2.00
2022-08-02T09:29:29.043Z,2.40
2022-08-02T09:30:29.065Z,2.60
2022-08-02T09:31:29.045Z,2.00
2022-08-02T09:32:29.052Z,2.40
2022-08-02T09:33:29.669Z,2.20
2022-08-02T09:34:28.977Z,2.10
2022-08-02T09:35:28.959Z,2.20
2022-08-02T09:36:28.962Z,2.50
2022-08-02T09:37:28.958Z,2.50
2022-08-02T09:38:28.944Z,2.20
2022-08-02T09:39:28.958Z,2.20
2022-08-02T09:40:28.900Z,2.10
2022-08-02T09:41:28.914Z,2.10
2022-08-02T09:42:30.221Z,2.20
2022-08-02T09:43:28.960Z,2.30
2022-08-02T09:44:28.883Z,2.40
2022-08-02T09:45:28.867Z,2.30
2022-08-02T09:46:28.944Z,2.20
2022-08-02T09:47:28.957Z,2.10
2022-08-02T09:48:28.941Z,2.20
2022-08-02T09:49:30.531Z,2.00
2022-08-02T09:50:29.554Z,2.20
2022-08-02T10:01:04.012Z,2.10
2022-08-02T10:02:04.524Z,2.00
2022-08-02T10:03:03.893Z,1.90
2022-08-02T10:04:03.833Z,2.00
2022-08-02T10:05:03.788Z,2.10
2022-08-02T10:06:03.746Z,2.00
2022-08-02T10:07:04.342Z,1.90
2022-08-02T10:08:04.663Z,2.10
2022-08-02T10:09:03.816Z,2.00
2022-08-02T10:10:03.690Z,2.00
2022-08-02T10:11:03.914Z,2.10
2022-08-02T10:12:04.770Z,2.00
2022-08-02T10:13:03.634Z,1.90
2022-08-02T10:14:03.798Z,2.10
2022-08-02T10:15:03.860Z,2.10
2022-08-02T10:16:04.050Z,2.20
2022-08-02T10:17:11.397Z,2.10
2022-08-02T10:18:17.524Z,2.00
2022-08-02T10:19:04.002Z,1.90
2022-08-02T10:20:04.544Z,2.20
2022-08-02T10:21:03.574Z,2.00
2022-08-02T10:22:03.599Z,1.90
2022-08-02T10:23:03.529Z,1.90
2022-08-02T10:24:03.500Z,2.00
2022-08-02T10:25:03.528Z,1.90
2022-08-02T10:26:03.545Z,1.70
2022-08-02T10:27:03.465Z,1.80
2022-08-02T10:28:05.651Z,1.70
2022-08-02T10:29:03.678Z,1.70
2022-08-02T10:30:03.777Z,1.70
2022-08-02T10:31:04.762Z,1.60
2022-08-02T10:32:03.461Z,1.80
2022-08-02T10:33:03.403Z,1.70
2022-08-02T10:34:03.394Z,1.60
2022-08-02T10:35:18.478Z,1.60
2022-08-02T10:36:07.075Z,1.70
2022-08-02T10:37:03.382Z,1.70
2022-08-02T10:38:03.793Z,1.50
2022-08-02T10:39:03.484Z,1.70
2022-08-02T10:40:03.387Z,1.70
2022-08-02T10:41:03.522Z,1.60
2022-08-02T10:42:04.799Z,1.80
2022-08-02T10:43:05.063Z,1.60
2022-08-02T10:44:05.426Z,1.60
2022-08-02T10:45:04.589Z,1.50
2022-08-02T10:46:04.713Z,1.50
2022-08-02T10:47:05.427Z,1.90
2022-08-02T10:48:05.125Z,1.50
2022-08-02T10:49:23.903Z,1.60
2022-08-02T10:50:06.423Z,1.70
2022-08-02T10:51:07.260Z,1.80
2022-08-02T10:52:11.054Z,1.70
2022-08-02T11:36:07.694Z,1.70
2022-08-02T11:37:08.470Z,1.60
2022-08-02T11:38:08.077Z,1.80
2022-08-02T11:39:08.030Z,1.80
2022-08-02T11:40:11.626Z,1.80
2022-08-02T11:41:09.933Z,1.70
2022-08-02T11:42:08.933Z,1.70
2022-08-02T11:43:08.003Z,1.60
2022-08-02T11:44:08.244Z,1.70
2022-08-02T11:45:21.483Z,1.90
